< < Back
Terminal Aerodrome Forecast


Current Version              Previous Versions:   1  2  3  4  5  6  7  8  9  

Terminal Aerodrome Forecast

452
FTUS42 KTAE 281700
TAFVLD
TAF
KVLD 281722Z 2818/2918 24008KT P6SM BKN040
     FM282000 24012KT P6SM VCTS BKN050CB
     FM282200 VRB15G30KT 3SM TSRA BKN030CB
     FM290100 VRB04KT P6SM SCT050 BKN100=



Latest METAR

002
SAUS70 KWBC 290600 RRN
MTRVLD
METAR KVLD 290553Z AUTO 00000KT 10SM CLR 26/21 A2993 RMK AO2 SLP139
T02560211 10317 20256 53002


USA.gov is the U.S. government's official web portal to all federal, state and local government web resources and services.